Time;durP1;ratioP1;P1;durP2;ratioP2;P2;SDS_P1;SDS_P2;PMS_P1;PMS_P2;Temp;Humidity;BMP_temperature;BMP_pressure;BME280_temperature;BME280_humidity;BME280_pressure;Samples;Min_cycle;Max_cycle;Signal;HPM_P1;HPM_P2
2022/08/12 00:45:09;;;;;;;3.60;3.40;;;;;;;26.37;68.95;99468.00;5073559;28;20212;-79
2022/08/12 00:47:38;;;;;;;4.43;3.97;;;;;;;26.48;68.77;99472.13;5072963;28;20616;-78
2022/08/12 00:50:06;;;;;;;4.87;4.40;;;;;;;26.59;68.50;99470.88;5073459;28;20621;-73
2022/08/12 00:52:34;;;;;;;3.63;3.33;;;;;;;26.69;67.78;99484.31;5073048;28;20673;-72
2022/08/12 00:55:04;;;;;;;6.67;3.30;;;;;;;26.79;67.52;99482.19;5073473;28;20254;-73
2022/08/12 00:57:35;;;;;;;3.80;3.43;;;;;;;26.94;66.73;99478.38;5073196;28;20192;-76
2022/08/12 01:00:08;;;;;;;6.53;4.23;;;;;;;26.96;67.09;99481.63;5072437;28;20224;-74
2022/08/12 01:02:39;;;;;;;4.90;4.50;;;;;;;26.85;67.22;99481.00;5072739;28;20559;-74
2022/08/12 01:13:23;;;;;;;7.10;6.60;;;;;;;26.43;69.67;99477.69;5072444;28;20548;-73
2022/08/12 01:15:53;;;;;;;6.97;6.47;;;;;;;26.38;70.04;99475.06;5072930;28;20196;-78
2022/08/12 01:18:22;;;;;;;6.77;6.27;;;;;;;26.31;70.98;99472.72;5073016;28;20676;-79
2022/08/12 01:21:03;;;;;;;6.33;5.97;;;;;;;26.26;70.52;99466.56;5072399;28;20195;-78
2022/08/12 01:24:00;;;;;;;6.67;6.27;;;;;;;26.14;71.58;99474.38;5072449;28;20315;-78
2022/08/12 01:26:31;;;;;;;6.50;6.07;;;;;;;26.04;72.01;99477.28;5071592;28;20644;-78
2022/08/12 01:29:00;;;;;;;5.97;5.57;;;;;;;26.12;72.37;99471.94;5071731;28;20188;-73
2022/08/12 01:31:29;;;;;;;7.50;6.77;;;;;;;26.16;71.01;99472.16;5071850;28;20624;-73
2022/08/12 01:34:02;;;;;;;6.30;5.90;;;;;;;26.13;71.83;99470.06;5072372;28;20283;-78
2022/08/12 01:36:31;;;;;;;7.90;7.40;;;;;;;26.16;70.85;99474.88;5072277;28;20184;-78
2022/08/12 01:38:59;;;;;;;7.93;7.27;;;;;;;26.14;71.45;99464.31;5072501;28;20200;-76
2022/08/12 01:41:30;;;;;;;7.33;6.93;;;;;;;26.10;72.01;99459.75;5071681;28;20555;-70
2022/08/12 01:44:01;;;;;;;7.10;6.50;;;;;;;25.98;71.93;99449.31;5071718;28;20279;-70
2022/08/12 01:46:39;;;;;;;7.30;6.80;;;;;;;25.84;73.38;99448.41;5071857;28;20204;-69
2022/08/12 01:49:27;;;;;;;7.57;7.07;;;;;;;25.64;73.73;99447.94;5071993;28;20188;-69
2022/08/12 01:52:03;;;;;;;8.47;6.37;;;;;;;25.52;74.93;99450.28;5071706;28;20607;-69
2022/08/12 01:54:37;;;;;;;7.40;6.80;;;;;;;25.54;74.46;99448.88;5072167;28;20195;-69
2022/08/12 01:57:10;;;;;;;7.43;7.03;;;;;;;25.57;74.58;99451.03;5072195;28;20557;-70
2022/08/12 01:59:52;;;;;;;7.30;6.73;;;;;;;25.57;74.72;99450.22;5071916;28;20234;-69
2022/08/12 02:02:25;;;;;;;6.27;5.93;;;;;;;25.58;74.64;99449.91;5071916;28;20628;-69
2022/08/12 02:14:18;;;;;;;7.37;6.93;;;;;;;25.54;74.63;99426.31;5071672;28;20183;-69
2022/08/12 02:17:04;;;;;;;9.00;7.00;;;;;;;25.43;75.46;99433.81;5072026;28;20188;-69
2022/08/12 02:19:55;;;;;;;8.37;7.83;;;;;;;25.43;75.15;99435.72;5071693;28;20180;-69
2022/08/12 02:22:28;;;;;;;7.40;6.87;;;;;;;25.41;74.84;99441.47;5071314;28;20663;-69
2022/08/12 02:25:03;;;;;;;7.07;6.47;;;;;;;25.33;75.85;99436.69;5070895;28;20695;-71
2022/08/12 02:27:35;;;;;;;8.20;7.80;;;;;;;25.29;75.71;99434.81;5071431;28;20195;-69
2022/08/12 02:30:04;;;;;;;6.90;6.40;;;;;;;25.25;76.35;99437.31;5071597;28;20188;-69
2022/08/12 02:32:37;;;;;;;8.03;7.00;;;;;;;25.25;75.67;99439.19;5071926;28;20195;-70
2022/08/12 02:35:05;;;;;;;7.90;7.30;;;;;;;25.35;74.61;99444.56;5071515;28;20650;-70
2022/08/12 02:37:34;;;;;;;7.20;6.53;;;;;;;25.43;74.92;99446.63;5071485;28;20246;-70
2022/08/12 02:40:03;;;;;;;6.57;6.00;;;;;;;25.57;74.28;99448.31;5071440;28;20199;-70
2022/08/12 02:42:33;;;;;;;8.80;8.00;;;;;;;25.67;72.91;99452.75;5071126;28;20196;-70
2022/08/12 02:45:07;;;;;;;8.20;7.70;;;;;;;25.63;72.23;99454.50;5071495;28;20273;-70
2022/08/12 02:47:39;;;;;;;8.27;7.87;;;;;;;25.53;72.65;99458.16;5071410;28;20180;-70
2022/08/12 02:50:07;;;;;;;12.70;8.10;;;;;;;25.37;72.83;99458.66;5071056;28;20219;-70
2022/08/12 02:52:35;;;;;;;6.37;5.97;;;;;;;25.21;74.52;99454.47;5070968;28;20188;-72
2022/08/12 02:55:11;;;;;;;7.03;6.60;;;;;;;25.03;75.15;99454.16;5070876;28;20245;-70
2022/08/12 02:57:40;;;;;;;7.13;6.73;;;;;;;24.80;75.28;99454.97;5071202;28;20195;-70
2022/08/12 03:00:10;;;;;;;7.07;6.63;;;;;;;24.70;75.16;99460.53;5071006;28;20196;-71
2022/08/12 03:02:39;;;;;;;5.47;5.00;;;;;;;24.74;74.88;99469.72;5070374;28;20744;-71
2022/08/12 03:05:10;;;;;;;5.13;4.83;;;;;;;24.81;72.88;99462.03;5070961;28;20634;-72
2022/08/12 03:07:44;;;;;;;5.10;4.60;;;;;;;24.75;73.05;99468.63;5070705;28;20567;-72
2022/08/12 03:10:12;;;;;;;4.80;4.60;;;;;;;24.77;73.44;99469.16;5071082;28;20661;-72
2022/08/12 03:12:42;;;;;;;3.83;3.70;;;;;;;24.85;73.18;99462.28;5071002;28;20195;-72
2022/08/12 03:15:13;;;;;;;6.30;3.93;;;;;;;25.07;70.96;99480.78;5070818;28;20652;-72
2022/08/12 03:17:48;;;;;;;3.37;3.07;;;;;;;25.15;70.91;99471.97;5070924;28;20191;-72
2022/08/12 03:20:17;;;;;;;3.70;3.40;;;;;;;25.24;70.05;99476.47;5070880;28;20699;-72
2022/08/12 03:22:45;;;;;;;3.93;3.60;;;;;;;25.33;67.71;99484.81;5071174;28;20193;-72
2022/08/12 03:25:16;;;;;;;5.30;4.27;;;;;;;25.31;69.49;99481.59;5070683;28;20216;-72
2022/08/12 03:27:48;;;;;;;4.43;3.57;;;;;;;25.46;68.55;99478.66;5070334;28;20206;-71
2022/08/12 03:30:18;;;;;;;4.10;3.47;;;;;;;25.63;67.77;99478.97;5070792;28;20216;-72
2022/08/12 03:32:47;;;;;;;3.53;3.30;;;;;;;25.81;66.96;99486.31;5070333;28;20192;-72
2022/08/12 03:35:23;;;;;;;10.73;4.60;;;;;;;25.83;66.51;99484.09;5070608;28;20204;-72
2022/08/12 03:37:51;;;;;;;5.57;4.60;;;;;;;25.57;66.80;99483.69;5074305;28;20184;-71
2022/08/12 04:02:24;;;;;;;4.87;4.47;;;;;;;26.19;66.94;99477.00;5073611;28;20191;-73
2022/08/12 04:04:51;;;;;;;6.57;4.80;;;;;;;26.31;65.81;99480.06;5073655;28;20192;-72
2022/08/12 04:07:18;;;;;;;4.77;4.27;;;;;;;26.56;64.61;99487.81;5073701;28;20566;-73
2022/08/12 04:09:46;;;;;;;4.90;4.10;;;;;;;27.00;63.07;99494.34;5073711;28;20612;-73
2022/08/12 04:14:58;;;;;;;7.67;4.87;;;;;;;27.75;59.99;99500.94;5073623;28;20589;-73
2022/08/12 04:17:27;;;;;;;6.30;4.53;;;;;;;28.06;59.11;99490.16;5073862;28;20200;-72
2022/08/12 04:19:55;;;;;;;7.83;4.97;;;;;;;28.25;58.25;99494.28;5073071;28;20202;-73
2022/08/12 04:22:27;;;;;;;6.77;5.40;;;;;;;28.17;59.06;99503.25;5073137;28;20199;-73
2022/08/12 04:24:54;;;;;;;5.23;4.43;;;;;;;28.22;58.09;99499.59;5073243;28;20195;-73
2022/08/12 04:27:21;;;;;;;5.73;5.30;;;;;;;28.05;58.70;99500.25;5072662;28;20196;-73
2022/08/12 04:29:48;;;;;;;8.63;5.20;;;;;;;28.03;59.37;99502.50;5072880;28;20277;-73
2022/08/12 04:32:15;;;;;;;5.73;5.23;;;;;;;28.07;58.39;99508.16;5072556;28;20314;-73
2022/08/12 04:34:43;;;;;;;6.97;6.33;;;;;;;28.01;58.90;99507.44;5072678;28;20204;-73
2022/08/12 04:37:10;;;;;;;6.57;6.10;;;;;;;28.27;58.66;99504.91;5073072;28;20199;-72
2022/08/12 04:39:39;;;;;;;7.17;6.60;;;;;;;28.45;58.18;99510.22;5073317;28;20619;-72
2022/08/12 04:42:06;;;;;;;8.43;6.83;;;;;;;28.12;58.81;99499.81;5072907;28;20287;-72
2022/08/12 04:44:33;;;;;;;7.83;7.30;;;;;;;27.71;60.57;99504.59;5073048;28;20191;-72
2022/08/12 04:46:59;;;;;;;6.93;6.53;;;;;;;27.85;61.53;99505.41;5072210;28;20227;-72
2022/08/12 04:49:27;;;;;;;7.17;6.67;;;;;;;28.54;58.56;99513.81;5072150;28;20541;-72
2022/08/12 04:51:58;;;;;;;7.97;7.27;;;;;;;28.58;58.32;99516.75;5072350;28;20282;-72
2022/08/12 04:54:25;;;;;;;9.57;8.70;;;;;;;28.25;59.68;99510.69;5072894;28;20552;-72
2022/08/12 04:56:52;;;;;;;7.77;6.60;;;;;;;27.91;61.25;99510.44;5072133;28;20728;-72
2022/08/12 04:59:19;;;;;;;7.33;6.50;;;;;;;27.83;60.89;99502.16;5072660;28;20655;-71
2022/08/12 05:01:50;;;;;;;8.60;6.40;;;;;;;27.74;59.74;99498.50;5072519;28;20188;-72
2022/08/12 05:04:18;;;;;;;5.50;5.13;;;;;;;27.56;60.93;99492.09;5072265;28;20186;-72
2022/08/12 05:06:45;;;;;;;5.73;5.33;;;;;;;27.64;60.01;99505.00;5071954;28;20285;-72
2022/08/12 05:09:14;;;;;;;4.80;4.60;;;;;;;28.09;58.77;99512.19;5071500;28;20686;-72
2022/08/12 05:11:41;;;;;;;5.37;5.03;;;;;;;28.61;56.80;99524.28;5071698;28;20252;-72
2022/08/12 05:14:08;;;;;;;5.73;4.33;;;;;;;28.70;56.06;99534.16;5072204;28;20195;-72
2022/08/12 05:16:36;;;;;;;5.23;4.77;;;;;;;28.94;55.54;99544.72;5071693;28;20196;-72
2022/08/12 05:19:04;;;;;;;4.60;4.40;;;;;;;29.34;54.04;99540.91;5071834;28;20188;-72
2022/08/12 05:21:30;;;;;;;6.30;5.73;;;;;;;30.03;52.51;99545.41;5071670;28;20227;-73
2022/08/12 05:23:57;;;;;;;6.70;4.70;;;;;;;30.45;51.06;99552.03;5071917;28;20192;-73
2022/08/12 05:26:26;;;;;;;5.70;5.37;;;;;;;31.04;48.91;99560.16;5071640;28;20234;-72
2022/08/12 05:28:53;;;;;;;4.43;4.17;;;;;;;31.25;47.99;99566.53;5071612;28;20257;-72
2022/08/12 05:31:20;;;;;;;5.10;4.70;;;;;;;31.64;47.18;99560.66;5071759;28;20293;-71
2022/08/12 05:33:47;;;;;;;4.27;4.07;;;;;;;31.89;45.88;99565.22;5067369;28;20257;-75
2022/08/12 05:36:16;;;;;;;5.60;5.07;;;;;;;32.22;45.99;99568.84;5071645;28;20196;-76
2022/08/12 05:38:56;;;;;;;3.70;3.47;;;;;;;32.50;44.29;99575.41;5071905;28;20279;-75
2022/08/12 05:41:25;;;;;;;4.10;3.83;;;;;;;32.78;43.87;99565.41;5071257;28;20180;-74
2022/08/12 05:43:53;;;;;;;4.00;3.80;;;;;;;32.86;43.19;99567.31;5071150;28;20192;-75
2022/08/12 05:46:20;;;;;;;7.20;4.57;;;;;;;33.30;42.82;99571.97;5071598;28;20215;-75
2022/08/12 05:48:48;;;;;;;12.33;4.93;;;;;;;33.39;42.60;99568.34;5071478;28;20188;-76
2022/08/12 05:51:15;;;;;;;8.60;4.87;;;;;;;33.50;41.67;99569.47;5071037;28;20655;-75
2022/08/12 05:53:42;;;;;;;6.27;5.83;;;;;;;34.15;40.92;99556.19;5071366;28;20192;-75
2022/08/12 05:56:19;;;;;;;8.40;7.53;;;;;;;33.80;41.35;99557.03;5071237;28;20553;-75
2022/08/12 05:58:48;;;;;;;4.95;4.53;;;;;;;33.62;41.67;99545.47;5070204;28;20227;-74
2022/08/12 06:01:15;;;;;;;5.33;4.87;;;;;;;33.44;42.15;99530.34;5070518;28;20192;-75
2022/08/12 06:03:42;;;;;;;5.13;4.73;;;;;;;33.68;41.44;99541.31;5070744;28;20192;-74
2022/08/12 06:06:09;;;;;;;5.97;5.47;;;;;;;33.76;41.71;99539.59;5070561;28;20218;-75
2022/08/12 06:08:36;;;;;;;8.00;6.20;;;;;;;33.79;41.18;99531.44;5070942;28;20242;-72
2022/08/12 06:11:04;;;;;;;6.20;5.70;;;;;;;33.80;41.56;99535.00;5067506;28;20196;-71
2022/08/12 06:13:33;;;;;;;9.07;5.77;;;;;;;33.63;41.86;99535.25;5071394;28;20192;-71
2022/08/12 06:16:02;;;;;;;11.70;5.83;;;;;;;33.60;42.03;99530.44;5071558;28;20256;-72
2022/08/12 06:18:29;;;;;;;4.87;4.47;;;;;;;33.74;40.48;99542.69;5070448;28;20711;-72
2022/08/12 06:20:58;;;;;;;4.53;4.20;;;;;;;33.91;40.41;99531.44;5070824;28;20200;-72
2022/08/12 06:23:27;;;;;;;5.17;4.90;;;;;;;33.96;39.31;99538.66;5071281;28;20198;-72
2022/08/12 06:25:55;;;;;;;4.63;4.33;;;;;;;34.03;39.01;99539.66;5071304;28;20220;-71
2022/08/12 06:28:21;;;;;;;4.13;3.83;;;;;;;33.77;39.59;99538.44;5071254;28;20206;-71
2022/08/12 06:30:49;;;;;;;5.07;4.67;;;;;;;33.56;39.69;99537.78;5071599;28;20192;-71
2022/08/12 06:33:18;;;;;;;18.10;6.27;;;;;;;33.61;39.94;99532.03;5071646;28;20283;-71
2022/08/12 06:35:45;;;;;;;4.63;4.30;;;;;;;33.41;41.13;99539.28;5071213;28;20231;-71
2022/08/12 06:38:17;;;;;;;3.95;3.50;;;;;;;33.58;40.63;99533.53;5071275;28;20281;-69
2022/08/12 06:43:29;;;;;;;6.70;3.83;;;;;;;34.04;39.19;99526.69;5071461;28;20175;-71
2022/08/12 06:45:56;;;;;;;4.40;4.00;;;;;;;34.07;39.60;99531.50;5071033;28;20792;-71
2022/08/12 06:48:25;;;;;;;4.93;4.27;;;;;;;34.09;39.44;99524.47;5071108;28;20774;-72
2022/08/12 06:50:53;;;;;;;5.93;4.68;;;;;;;34.27;38.66;99533.25;5071188;28;20625;-72
2022/08/12 06:53:20;;;;;;;3.72;3.53;;;;;;;34.21;39.22;99529.16;5071315;28;20725;-72
2022/08/12 06:55:47;;;;;;;4.13;3.85;;;;;;;34.39;38.58;99525.78;5072518;28;20188;-72
2022/08/12 06:58:15;;;;;;;4.32;3.25;;;;;;;34.40;38.67;99516.34;5070950;28;20269;-72
2022/08/12 07:00:45;;;;;;;4.50;4.10;;;;;;;34.53;37.98;99519.84;5072361;28;20220;-71
2022/08/12 07:03:16;;;;;;;5.13;4.43;;;;;;;34.46;37.67;99509.38;5071333;28;20679;-72
2022/08/12 07:05:44;;;;;;;3.75;3.33;;;;;;;34.50;38.33;99515.03;5071082;28;20189;-72
2022/08/12 07:08:14;;;;;;;4.25;3.95;;;;;;;34.67;37.17;99511.94;5071134;28;20245;-72
2022/08/12 07:10:43;;;;;;;4.55;4.22;;;;;;;34.48;36.85;99512.63;5073581;28;20324;-71
2022/08/12 07:13:10;;;;;;;3.17;2.97;;;;;;;34.49;37.19;99513.44;5074747;28;20645;-72
2022/08/12 07:15:38;;;;;;;4.03;3.35;;;;;;;34.39;37.13;99508.41;5074743;28;20639;-72
2022/08/12 07:18:10;;;;;;;5.43;3.40;;;;;;;34.32;37.12;99505.44;5075575;28;20187;-72
2022/08/12 07:20:40;;;;;;;3.53;3.42;;;;;;;34.53;36.72;99514.31;5075324;28;20188;-72
2022/08/12 07:23:08;;;;;;;6.10;4.00;;;;;;;34.59;36.43;99502.66;5074923;28;20256;-71
2022/08/12 07:25:36;;;;;;;6.10;3.72;;;;;;;34.66;36.69;99502.84;5074553;28;20230;-72
2022/08/12 07:28:05;;;;;;;4.00;3.47;;;;;;;34.84;36.23;99503.34;5074481;28;20610;-71
2022/08/12 07:30:35;;;;;;;3.95;3.20;;;;;;;35.03;36.02;99506.19;5074449;28;20199;-72
2022/08/12 07:33:04;;;;;;;12.55;3.88;;;;;;;35.09;34.70;99497.28;5074814;28;20203;-71
2022/08/12 07:35:33;;;;;;;6.68;3.78;;;;;;;34.99;35.12;99488.75;5074706;28;20257;-72
2022/08/12 07:38:01;;;;;;;4.80;3.80;;;;;;;35.05;35.71;99492.81;5074485;28;20204;-72
2022/08/12 07:40:29;;;;;;;4.57;3.85;;;;;;;35.15;34.32;99498.59;5074834;28;20192;-71
2022/08/12 07:42:56;;;;;;;3.85;3.58;;;;;;;35.30;34.73;99495.06;5075092;28;20195;-71
2022/08/12 07:45:24;;;;;;;3.67;3.38;;;;;;;35.05;34.52;99492.81;5074686;28;20279;-71
2022/08/12 07:47:51;;;;;;;3.40;3.00;;;;;;;35.12;34.60;99488.28;5074663;28;20307;-71
2022/08/12 07:50:19;;;;;;;3.70;3.50;;;;;;;35.15;33.82;99487.56;5074271;28;20196;-71
2022/08/12 07:52:47;;;;;;;3.55;3.25;;;;;;;35.05;33.69;99493.63;5074803;28;20260;-71
2022/08/12 07:55:16;;;;;;;4.35;3.50;;;;;;;35.24;33.69;99490.13;5074487;28;20269;-71
2022/08/12 07:57:57;;;;;;;5.15;3.72;;;;;;;35.35;32.43;99494.78;5074417;28;20249;-70
2022/08/12 08:00:26;;;;;;;3.38;3.17;;;;;;;35.21;31.98;99490.84;5074569;28;20222;-70
2022/08/12 08:02:53;;;;;;;3.58;3.30;;;;;;;35.04;32.59;99485.69;5074724;28;20371;-71
2022/08/12 08:05:21;;;;;;;3.50;3.30;;;;;;;35.19;32.93;99482.13;5074351;28;20192;-68
2022/08/12 08:07:48;;;;;;;3.72;3.58;;;;;;;35.44;32.29;99489.06;5074022;28;20698;-68
2022/08/12 08:10:15;;;;;;;4.03;3.70;;;;;;;35.44;33.41;99478.00;5074319;28;20249;-69
2022/08/12 08:12:56;;;;;;;8.23;4.90;;;;;;;35.41;33.25;99481.50;5074096;28;20196;-71
2022/08/12 08:15:26;;;;;;;3.70;3.30;;;;;;;35.24;33.08;99473.56;5074229;28;20219;-71
2022/08/12 08:17:58;;;;;;;4.53;3.92;;;;;;;35.22;32.50;99473.09;5074203;28;20253;-71
2022/08/12 08:20:28;;;;;;;3.28;3.08;;;;;;;35.31;31.88;99473.75;5073731;28;20192;-71
2022/08/12 08:22:56;;;;;;;3.72;3.42;;;;;;;35.23;31.87;99455.38;5073764;28;20202;-72
2022/08/12 08:25:30;;;;;;;5.55;3.30;;;;;;;35.34;31.10;99460.03;5073689;28;20235;-71
2022/08/12 08:28:01;;;;;;;3.70;3.35;;;;;;;35.42;31.70;99463.75;5073684;28;20204;-70
2022/08/12 08:30:31;;;;;;;5.85;3.88;;;;;;;35.29;32.06;99459.50;5073573;28;20195;-71
2022/08/12 08:32:57;;;;;;;3.95;3.65;;;;;;;35.37;31.22;99455.72;5073820;28;20272;-70
2022/08/12 08:35:26;;;;;;;7.30;3.67;;;;;;;35.46;31.33;99461.84;5073224;28;20735;-70
2022/08/12 08:37:52;;;;;;;3.42;2.80;;;;;;;35.48;30.48;99451.25;5073519;28;20577;-71
2022/08/12 08:43:04;;;;;;;4.72;4.30;;;;;;;35.42;33.40;99453.50;5073542;28;20183;-71
2022/08/12 08:45:32;;;;;;;5.10;4.10;;;;;;;35.39;32.82;99447.91;5073681;28;20200;-71
2022/08/12 08:47:59;;;;;;;4.57;4.20;;;;;;;35.14;32.46;99443.72;5073350;28;20220;-71
2022/08/12 08:50:26;;;;;;;6.95;3.55;;;;;;;34.83;33.14;99447.31;5073206;28;20237;-71
2022/08/12 08:52:53;;;;;;;1.92;1.83;;;;;;;34.54;28.84;99452.44;5073469;28;20207;-71
2022/08/12 08:55:19;;;;;;;4.93;2.00;;;;;;;34.57;28.32;99437.94;5073068;28;20196;-71
2022/08/12 08:57:49;;;;;;;1.80;1.70;;;;;;;34.64;27.48;99436.16;5073211;28;20199;-71
2022/08/12 09:00:18;;;;;;;3.42;2.13;;;;;;;34.79;27.12;99434.56;5073109;28;20651;-72
2022/08/12 09:02:47;;;;;;;4.85;2.25;;;;;;;34.59;28.14;99422.63;5073607;28;20192;-71
2022/08/12 09:05:16;;;;;;;3.70;2.22;;;;;;;34.62;28.35;99418.34;5073417;28;20195;-72
2022/08/12 09:07:47;;;;;;;2.63;2.42;;;;;;;34.46;29.13;99414.78;5073672;28;20227;-71
2022/08/12 09:10:18;;;;;;;1.98;1.88;;;;;;;34.38;28.92;99418.53;5072938;28;20253;-72
2022/08/12 09:15:30;;;;;;;2.13;2.03;;;;;;;33.81;30.90;99404.28;5071979;28;20654;-72
2022/08/12 09:17:59;;;;;;;2.40;2.20;;;;;;;34.18;30.59;99408.50;5070656;28;20200;-74
2022/08/12 09:20:27;;;;;;;3.03;2.80;;;;;;;34.09;29.74;99400.38;5069278;28;20195;-70
2022/08/12 09:22:55;;;;;;;5.95;3.13;;;;;;;34.02;30.39;99410.41;5071873;28;20686;-70
2022/08/12 09:25:25;;;;;;;3.25;2.95;;;;;;;34.36;29.38;99409.78;5072462;28;20192;-70
2022/08/12 09:27:52;;;;;;;2.78;2.58;;;;;;;34.68;29.33;99405.88;5072352;28;20765;-70
2022/08/12 09:30:19;;;;;;;2.65;2.45;;;;;;;34.31;29.55;99402.59;5072429;28;20647;-70
2022/08/12 09:32:49;;;;;;;6.45;2.83;;;;;;;34.15;30.72;99403.69;5070644;28;20230;-70
2022/08/12 09:35:19;;;;;;;8.73;2.97;;;;;;;34.45;29.21;99402.16;5067450;28;20188;-72
2022/08/12 09:37:47;;;;;;;5.88;2.42;;;;;;;34.51;29.58;99407.06;5067753;28;20287;-63
2022/08/12 09:40:15;;;;;;;2.85;2.60;;;;;;;34.22;29.39;99409.38;5071909;28;20184;-61
2022/08/12 09:45:27;;;;;;;2.45;2.35;;;;;;;34.36;28.86;99405.06;5068481;28;20174;-63
2022/08/12 09:47:54;;;;;;;2.25;2.15;;;;;;;33.99;28.58;99402.84;5066009;28;20220;-63
2022/08/12 09:50:22;;;;;;;4.25;2.40;;;;;;;33.09;30.15;99406.06;5067592;28;20208;-67
2022/08/12 09:53:05;;;;;;;4.23;2.40;;;;;;;32.43;31.11;99395.59;5065317;28;20191;-68
2022/08/12 09:55:32;;;;;;;4.03;2.43;;;;;;;32.26;30.83;99388.28;5067592;28;20648;-62
2022/08/12 09:57:59;;;;;;;5.43;2.87;;;;;;;32.30;30.38;99383.75;5069373;28;20582;-63
2022/08/12 10:00:26;;;;;;;2.70;2.50;;;;;;;32.22;30.68;99384.59;5068522;28;20198;-62
2022/08/12 10:03:02;;;;;;;2.67;2.47;;;;;;;32.45;31.18;99380.34;5069696;28;20199;-68
2022/08/12 10:05:35;;;;;;;3.10;2.30;;;;;;;32.42;31.19;99372.75;5069761;28;20191;-65
2022/08/12 10:08:03;;;;;;;3.20;3.00;;;;;;;32.25;31.41;99375.69;5068969;28;20215;-62
2022/08/12 10:10:30;;;;;;;2.53;2.43;;;;;;;32.37;31.27;99370.25;5069564;28;20667;-63
2022/08/12 10:15:43;;;;;;;2.70;2.60;;;;;;;32.85;30.53;99359.28;5069679;28;20564;-64
2022/08/12 10:18:11;;;;;;;2.67;2.50;;;;;;;33.13;29.94;99362.09;5070831;28;20210;-63
2022/08/12 10:20:39;;;;;;;3.60;2.67;;;;;;;33.33;30.89;99356.44;5070805;28;20192;-65
2022/08/12 10:23:07;;;;;;;3.00;2.70;;;;;;;33.26;31.66;99356.22;5070199;28;20196;-67
2022/08/12 10:31:03;;;;;;;4.83;2.93;;;;;;;33.51;31.00;99345.94;5071494;28;20195;-66
2022/08/12 10:33:30;;;;;;;6.63;3.47;;;;;;;33.66;30.28;99336.13;5070525;28;20651;-73
2022/08/12 10:36:00;;;;;;;2.90;2.70;;;;;;;33.70;31.16;99337.03;5071067;28;20581;-73
2022/08/12 10:38:27;;;;;;;6.50;2.60;;;;;;;33.71;29.88;99341.41;5070426;28;20200;-73
2022/08/12 10:43:43;;;;;;;2.67;2.50;;;;;;;33.75;29.10;99328.50;5068956;28;20183;-72
2022/08/12 10:46:16;;;;;;;2.72;2.53;;;;;;;33.93;28.60;99330.63;5073400;28;20792;-72
2022/08/12 10:48:47;;;;;;;6.10;2.78;;;;;;;34.15;28.67;99327.25;5072573;28;20211;-72
2022/08/12 10:51:17;;;;;;;4.45;2.83;;;;;;;34.06;28.25;99323.06;5073029;28;20571;-75
2022/08/12 10:53:45;;;;;;;4.35;2.58;;;;;;;34.25;27.92;99320.41;5074375;28;20243;-73
2022/08/12 10:56:13;;;;;;;2.85;2.60;;;;;;;34.18;27.74;99325.75;5073548;28;20245;-74
2022/08/12 10:58:40;;;;;;;2.70;2.60;;;;;;;34.21;27.15;99320.31;5074918;28;20283;-73
2022/08/12 11:01:09;;;;;;;2.50;2.10;;;;;;;33.86;27.44;99318.59;5074064;28;20196;-75
2022/08/12 11:03:36;;;;;;;2.67;2.42;;;;;;;33.78;27.75;99311.25;5072449;28;20284;-73
2022/08/12 11:06:04;;;;;;;5.60;2.65;;;;;;;33.89;27.97;99306.88;5073937;28;20196;-73
2022/08/12 11:08:34;;;;;;;2.42;2.13;;;;;;;34.00;28.31;99299.69;5073150;28;20223;-76
2022/08/12 11:11:01;;;;;;;2.40;2.30;;;;;;;33.65;27.86;99293.19;5073203;28;20199;-73
2022/08/12 11:13:28;;;;;;;4.32;2.33;;;;;;;33.43;28.67;99286.28;5072608;28;20196;-72
2022/08/12 11:15:54;;;;;;;3.30;2.42;;;;;;;33.00;29.68;99284.22;5075489;28;20273;-72
2022/08/12 11:18:22;;;;;;;2.75;2.55;;;;;;;33.20;29.49;99288.75;5074934;28;20744;-72
2022/08/12 11:20:49;;;;;;;2.70;2.50;;;;;;;33.36;29.24;99277.84;5075564;28;20192;-72
2022/08/12 11:23:17;;;;;;;3.47;2.25;;;;;;;33.61;31.64;99275.75;5075438;28;20564;-73
2022/08/12 11:25:45;;;;;;;2.97;2.40;;;;;;;33.73;29.45;99275.69;5076097;28;20224;-74
2022/08/12 11:28:12;;;;;;;4.95;2.70;;;;;;;33.78;29.32;99279.00;5075047;28;20215;-75
2022/08/12 11:30:39;;;;;;;2.72;2.53;;;;;;;33.89;28.32;99282.06;5075192;28;20192;-75
2022/08/12 11:33:06;;;;;;;2.45;2.20;;;;;;;33.87;28.01;99284.34;5073377;28;20325;-75
2022/08/12 11:35:35;;;;;;;2.90;2.60;;;;;;;33.79;28.74;99271.50;5073848;28;20192;-75
2022/08/12 11:38:02;;;;;;;2.60;2.50;;;;;;;33.50;28.48;99263.63;5072393;28;20206;-72
2022/08/12 11:40:29;;;;;;;2.58;2.47;;;;;;;33.43;28.72;99267.00;5073794;28;20190;-74
2022/08/12 11:42:59;;;;;;;2.42;2.33;;;;;;;33.58;28.81;99257.97;5072465;28;20203;-76
2022/08/12 11:45:26;;;;;;;5.57;2.83;;;;;;;33.63;29.58;99265.97;5070405;28;20195;-77
2022/08/12 11:47:54;;;;;;;4.53;2.22;;;;;;;33.70;29.84;99262.63;5074144;28;20577;-75
2022/08/12 11:50:21;;;;;;;2.78;2.63;;;;;;;33.71;28.14;99258.72;5074421;28;20730;-80
2022/08/12 11:52:48;;;;;;;2.60;2.50;;;;;;;33.57;27.93;99261.09;5073993;28;20195;-78
2022/08/12 11:55:15;;;;;;;3.42;2.50;;;;;;;33.50;28.88;99253.44;5074403;28;20200;-77
2022/08/12 11:57:52;;;;;;;2.90;2.70;;;;;;;33.53;28.46;99254.69;5073878;28;20249;-76
2022/08/12 12:00:21;;;;;;;3.50;2.40;;;;;;;33.29;29.87;99244.56;5074500;28;20542;-74
2022/08/12 12:02:48;;;;;;;2.90;2.70;;;;;;;33.20;30.27;99238.41;5074273;28;20196;-75
2022/08/12 12:05:15;;;;;;;2.90;2.60;;;;;;;33.14;30.21;99237.84;5074168;28;20196;-66
2022/08/12 12:07:43;;;;;;;3.83;3.60;;;;;;;33.12;29.70;99234.63;5074320;28;20220;-67
2022/08/12 12:10:11;;;;;;;4.30;2.37;;;;;;;33.20;30.29;99230.94;5075053;28;20200;-67
2022/08/12 12:12:38;;;;;;;3.83;2.47;;;;;;;33.28;30.95;99221.72;5074271;28;20655;-68
2022/08/12 12:15:05;;;;;;;2.77;2.43;;;;;;;33.23;28.63;99221.97;5073311;28;20188;-67
2022/08/12 12:17:37;;;;;;;2.20;2.10;;;;;;;33.17;28.50;99220.63;5072904;28;20763;-67
2022/08/12 12:20:06;;;;;;;2.55;2.35;;;;;;;33.22;28.53;99212.13;5073406;28;20242;-68
2022/08/12 12:22:33;;;;;;;2.90;2.50;;;;;;;33.19;30.25;99199.03;5073694;28;20232;-68
2022/08/12 12:25:00;;;;;;;2.97;2.60;;;;;;;33.24;29.81;99198.00;5074164;28;20261;-68
2022/08/12 12:27:26;;;;;;;2.33;2.13;;;;;;;33.19;29.35;99192.72;5073961;28;20192;-67
2022/08/12 12:29:55;;;;;;;2.50;2.30;;;;;;;33.24;29.68;99193.28;5073558;28;20196;-66
2022/08/12 12:32:22;;;;;;;2.83;2.67;;;;;;;33.24;30.25;99189.75;5074084;28;20196;-66
2022/08/12 12:34:50;;;;;;;2.30;2.20;;;;;;;33.28;28.68;99190.63;5073420;28;20188;-69
2022/08/12 12:37:17;;;;;;;2.47;2.27;;;;;;;33.08;28.75;99188.91;5073644;28;20192;-67
2022/08/12 12:39:43;;;;;;;2.50;2.30;;;;;;;32.84;28.72;99189.00;5073469;28;20659;-67
2022/08/12 12:42:10;;;;;;;2.47;2.30;;;;;;;32.91;27.89;99178.97;5074205;28;20195;-66
2022/08/12 12:44:37;;;;;;;3.60;2.20;;;;;;;32.92;28.79;99180.56;5073342;28;20192;-67
2022/08/12 12:47:04;;;;;;;5.53;2.67;;;;;;;33.08;28.44;99175.91;5072939;28;20192;-65
2022/08/12 12:49:30;;;;;;;3.03;2.10;;;;;;;33.24;27.38;99179.50;5073761;28;20220;-67
2022/08/12 12:51:58;;;;;;;2.47;2.37;;;;;;;33.36;28.14;99178.69;5073379;28;20203;-68
2022/08/12 12:54:25;;;;;;;2.55;2.40;;;;;;;33.23;28.32;99180.66;5073123;28;20722;-66
2022/08/12 12:56:53;;;;;;;2.40;2.30;;;;;;;33.41;28.85;99180.38;5073497;28;20195;-68
2022/08/12 12:59:23;;;;;;;3.78;2.38;;;;;;;33.48;28.41;99164.03;5073288;28;20273;-67
2022/08/12 13:01:50;;;;;;;2.53;2.33;;;;;;;33.46;28.20;99169.06;5074332;28;20212;-67
2022/08/12 13:04:17;;;;;;;6.97;2.60;;;;;;;33.53;28.25;99163.75;5072706;28;20192;-67
2022/08/12 13:06:50;;;;;;;3.22;2.47;;;;;;;33.50;27.72;99162.50;5073077;28;20193;-68
2022/08/12 13:09:19;;;;;;;3.28;2.50;;;;;;;33.41;28.53;99163.84;5072629;28;20796;-75
2022/08/12 13:11:47;;;;;;;2.40;2.10;;;;;;;33.36;27.87;99159.41;5073049;28;20200;-76
2022/08/12 13:14:15;;;;;;;2.40;2.20;;;;;;;33.39;27.64;99155.16;5072710;28;20222;-74
2022/08/12 13:16:42;;;;;;;2.10;2.00;;;;;;;33.46;27.92;99145.09;5070815;28;20282;-75
2022/08/12 13:19:09;;;;;;;2.05;2.03;;;;;;;33.55;27.83;99158.72;5070799;28;20204;-78
2022/08/12 13:22:15;;;;;;;2.33;2.17;;;;;;;33.65;28.37;99149.91;5071341;28;20282;-75
2022/08/12 13:24:25;;;;;;;5.47;2.47;;;;;;;33.75;28.07;99152.09;5070770;28;20685;-81
2022/08/12 13:26:51;;;;;;;2.95;2.40;;;;;;;33.88;27.87;99151.69;5072134;28;20279;-81
2022/08/12 13:29:18;;;;;;;2.13;2.03;;;;;;;33.95;27.22;99156.56;5070483;28;20216;-76
2022/08/12 13:31:45;;;;;;;6.95;2.45;;;;;;;33.97;27.34;99154.28;5069106;28;20621;-77